Impacts TAF Board
For situational awareness. Not to be used for flight planning purposes.
IDs:

KPDX - Portland Intl Arpt, OR, US

Issued at 1132 UTC 15 Jul 2020
Updated at 1229 UTC 15 Jul 2020
Potential Impact None Slight Moderate High
Time<<16/01Z 16/02Z 16/03Z 16/04Z 16/05Z 16/06Z 16/07Z 16/08Z 16/09Z 16/10Z 16/11Z 16/12Z 16/13Z>>
Type PRVL PRVL PRVL PRVL PRVL PRVL PRVL PRVL PRVL PRVL PRVL
VIS >6 >6 >6 >6 >6 >6 >6 >6 >6 >6 >6
CIG -- -- -- -- -- -- -- -- -- -- --
Cover SKC SKC SKC SCT SCT SCT SCT SCT SCT SCT SCT
FltCat VFR VFR VFR VFR VFR VFR VFR VFR VFR VFR VFR
WX -- -- -- -- -- -- -- -- -- -- --
WDir 330 330 330 320 320 320 320 320 320 320 320
WSpd 11 11 11 8 8 8 8 8 8 8 8
WGst 18 18 18 -- -- -- -- -- -- -- --
Raw TAF
KPDX 151132Z 1512/1612 34005KT P6SM SKC
  FM151700 32008KT P6SM SKC
  FM152200 33011G18KT P6SM SKC
  FM160400 32008KT P6SM SCT100


METAR Board
Radar Display
Forecast Discussion
For situational awareness. Not to be used for flight planning purposes.